createdAt,value
2019-03-04T00:00:01.384Z,99496.78
2019-03-04T00:02:37.907Z,99502.56
2019-03-04T00:05:08.543Z,99496.88
2019-03-04T00:07:44.500Z,99493.41
2019-03-04T00:10:17.759Z,99493.78
2019-03-04T00:12:56.855Z,99483.74
2019-03-04T00:15:28.861Z,99494.80
2019-03-04T00:18:03.271Z,99489.05
2019-03-04T00:20:38.069Z,99492.55
2019-03-04T00:23:15.109Z,99490.80
2019-03-04T00:25:52.067Z,99482.84
2019-03-04T00:28:22.597Z,99481.56
2019-03-04T00:30:54.048Z,99483.41
2019-03-04T00:33:25.190Z,99472.41
2019-03-04T00:35:55.441Z,99467.06
2019-03-04T00:38:27.174Z,99463.59
2019-03-04T00:40:57.700Z,99458.34
2019-03-04T00:43:28.221Z,99462.73
2019-03-04T00:45:58.459Z,99460.55
2019-03-04T00:48:29.897Z,99454.04
2019-03-04T00:51:00.145Z,99455.45
2019-03-04T00:53:30.650Z,99447.55
2019-03-04T00:56:04.256Z,99436.19
2019-03-04T00:58:34.492Z,99433.00
2019-03-04T01:01:06.859Z,99421.20
2019-03-04T01:03:37.372Z,99423.78
2019-03-04T01:06:07.617Z,99431.31
2019-03-04T01:08:39.062Z,99433.52
2019-03-04T01:11:09.583Z,99421.75
2019-03-04T01:13:40.730Z,99430.63
2019-03-04T01:16:10.961Z,99429.76
2019-03-04T01:18:42.403Z,99423.19
2019-03-04T01:21:12.643Z,99420.97
2019-03-04T01:23:44.991Z,99411.27
2019-03-04T01:26:15.240Z,99410.47
2019-03-04T01:28:47.592Z,99410.84
2019-03-04T01:31:17.834Z,99410.38
2019-03-04T01:33:48.959Z,99404.66
2019-03-04T01:36:19.200Z,99398.52
2019-03-04T01:38:49.437Z,99398.05
2019-03-04T01:41:19.688Z,99393.23
2019-03-04T01:43:49.930Z,99398.52
2019-03-04T01:46:20.168Z,99387.06
2019-03-04T01:48:50.977Z,99389.67
2019-03-04T01:51:21.294Z,99390.56
2019-03-04T01:53:51.527Z,99386.69
2019-03-04T01:56:21.777Z,99381.80
2019-03-04T01:58:52.027Z,99389.81
2019-03-04T02:01:23.282Z,99392.97
2019-03-04T02:03:53.520Z,99394.27
2019-03-04T02:06:23.769Z,99391.13
2019-03-04T02:08:54.000Z,99389.07
2019-03-04T02:11:24.245Z,99388.29
2019-03-04T02:13:54.490Z,99390.06
2019-03-04T02:16:24.738Z,99385.33
2019-03-04T02:18:54.972Z,99382.25
2019-03-04T02:21:25.207Z,99383.11
2019-03-04T02:23:55.440Z,99373.05
2019-03-04T02:26:25.683Z,99371.39
2019-03-04T02:28:55.992Z,99365.12
2019-03-04T02:31:27.205Z,99357.74
2019-03-04T02:33:57.679Z,99357.33
2019-03-04T02:36:27.923Z,99344.61
2019-03-04T02:38:58.158Z,99335.36
2019-03-04T02:41:28.397Z,99316.44
2019-03-04T02:43:58.654Z,99328.75
2019-03-04T02:46:28.947Z,99330.52
2019-03-04T02:48:59.187Z,99313.32
2019-03-04T02:51:29.426Z,99311.08
2019-03-04T02:53:59.739Z,99307.52
2019-03-04T02:56:30.409Z,99310.55
2019-03-04T02:59:00.656Z,99318.02
2019-03-04T03:01:30.972Z,99310.95
2019-03-04T03:04:01.219Z,99291.92
2019-03-04T03:06:31.820Z,99283.91
2019-03-04T03:09:02.063Z,99277.23
2019-03-04T03:11:34.284Z,99286.39
2019-03-04T03:14:04.516Z,99292.41
2019-03-04T03:16:34.759Z,99294.52
2019-03-04T03:19:05.004Z,99299.23
2019-03-04T03:21:35.238Z,99297.34
2019-03-04T03:24:05.476Z,99290.11
2019-03-04T03:26:36.082Z,99290.44
2019-03-04T03:29:06.325Z,99294.23
2019-03-04T03:31:36.587Z,99294.09
2019-03-04T03:34:07.937Z,99288.63
2019-03-04T03:36:38.195Z,99289.44
2019-03-04T03:39:08.425Z,99289.87
2019-03-04T03:41:38.689Z,99292.79
2019-03-04T03:44:08.929Z,99290.50
2019-03-04T03:46:39.187Z,99294.77
2019-03-04T03:49:09.419Z,99291.16
2019-03-04T03:51:39.677Z,99289.28
2019-03-04T03:54:09.989Z,99281.28
2019-03-04T03:56:40.316Z,99277.20
2019-03-04T03:59:10.572Z,99278.83
2019-03-04T04:01:40.831Z,99266.34
2019-03-04T04:04:12.809Z,99269.33
2019-03-04T04:06:43.075Z,99277.55
2019-03-04T04:09:13.898Z,99278.28
2019-03-04T04:11:44.156Z,99292.20
2019-03-04T04:14:14.405Z,99300.05
2019-03-04T04:16:44.660Z,99300.55
2019-03-04T04:19:14.912Z,99298.00
2019-03-04T04:21:45.152Z,99294.51
2019-03-04T04:24:15.394Z,99288.47
2019-03-04T04:26:45.650Z,99294.75
2019-03-04T04:29:15.885Z,99296.07
2019-03-04T04:31:46.145Z,99275.95
2019-03-04T04:34:17.267Z,99280.97
2019-03-04T04:36:47.519Z,99269.59
2019-03-04T04:39:17.755Z,99274.68
2019-03-04T04:41:48.006Z,99266.05
2019-03-04T04:44:18.249Z,99255.55
2019-03-04T04:46:53.451Z,99248.23
2019-03-04T04:49:23.687Z,99253.52
2019-03-04T04:51:53.944Z,99252.20
2019-03-04T04:54:24.251Z,99256.70
2019-03-04T04:56:54.513Z,99244.45
2019-03-04T04:59:24.747Z,99238.84
2019-03-04T05:01:55.281Z,99238.06
2019-03-04T05:04:25.594Z,99237.32
2019-03-04T05:06:55.854Z,99236.03
2019-03-04T05:09:26.099Z,99231.28
2019-03-04T05:11:56.362Z,99225.20
2019-03-04T05:14:26.615Z,99216.87
2019-03-04T05:16:56.945Z,99203.29
2019-03-04T05:19:28.452Z,99198.11
2019-03-04T05:21:58.692Z,99182.75
2019-03-04T05:24:29.699Z,99177.34
2019-03-04T05:27:00.330Z,99175.41
2019-03-04T05:29:30.652Z,99176.19
2019-03-04T05:32:00.989Z,99180.48
2019-03-04T05:34:33.073Z,99182.61
2019-03-04T05:37:03.592Z,99177.27
2019-03-04T05:39:35.035Z,99176.46
2019-03-04T05:42:06.490Z,99177.41
2019-03-04T05:44:36.769Z,99178.75
2019-03-04T05:47:07.018Z,99186.75
2019-03-04T05:49:37.269Z,99168.72
2019-03-04T05:52:07.512Z,99167.03
2019-03-04T05:54:37.753Z,99159.70
2019-03-04T05:57:08.074Z,99157.09
2019-03-04T05:59:38.321Z,99147.98
2019-03-04T06:02:08.574Z,99146.86
2019-03-04T06:04:38.896Z,99141.35
2019-03-04T06:07:10.855Z,99144.02
2019-03-04T06:09:41.409Z,99141.83
2019-03-04T06:12:11.867Z,99136.50
2019-03-04T06:14:43.189Z,99118.52
2019-03-04T06:17:13.515Z,99115.52
2019-03-04T06:19:44.112Z,99117.78
2019-03-04T06:22:14.667Z,99117.34
2019-03-04T06:24:44.940Z,99111.77
2019-03-04T06:27:15.272Z,99087.31
2019-03-04T06:29:45.652Z,99082.86
2019-03-04T06:32:15.907Z,99085.08
2019-03-04T06:34:46.699Z,99080.67
2019-03-04T06:37:17.226Z,99070.94
2019-03-04T06:39:47.562Z,99072.88
2019-03-04T06:42:17.971Z,99075.33
2019-03-04T06:44:48.243Z,99062.67
2019-03-04T06:47:18.495Z,99057.52
2019-03-04T06:49:48.827Z,99052.38
2019-03-04T06:52:19.138Z,99050.70
2019-03-04T06:54:55.334Z,99052.44
2019-03-04T06:57:28.533Z,99043.83
2019-03-04T07:00:16.973Z,99035.07
2019-03-04T07:02:47.242Z,99034.59
2019-03-04T07:05:40.016Z,99031.36
2019-03-04T07:08:16.368Z,99014.02
2019-03-04T07:10:46.639Z,99008.83
2019-03-04T07:13:16.965Z,99003.37
2019-03-04T07:15:48.832Z,99001.81
2019-03-04T07:18:19.186Z,99013.53
2019-03-04T07:20:49.713Z,99010.81
2019-03-04T07:23:20.056Z,99003.25
2019-03-04T07:25:50.312Z,99005.06
2019-03-04T07:28:26.523Z,99003.33
2019-03-04T07:30:56.855Z,98995.40
2019-03-04T07:33:27.181Z,98985.59
2019-03-04T07:35:58.383Z,98989.33
2019-03-04T07:38:54.593Z,98982.94
2019-03-04T07:41:25.038Z,98978.98
2019-03-04T07:43:55.502Z,98986.33
2019-03-04T07:46:26.957Z,98981.59
2019-03-04T07:48:57.524Z,98975.55
2019-03-04T07:51:29.644Z,98979.22
2019-03-04T07:54:00.207Z,98981.88
2019-03-04T07:56:33.251Z,98984.91
2019-03-04T07:59:06.313Z,98981.39
2019-03-04T08:01:36.588Z,98975.82
2019-03-04T08:04:06.872Z,98968.59
2019-03-04T08:06:37.200Z,98974.42
2019-03-04T08:09:31.579Z,98976.61
2019-03-04T08:12:37.819Z,98969.66
2019-03-04T08:15:09.212Z,98969.44
2019-03-04T08:17:39.609Z,98962.77
2019-03-04T08:20:09.882Z,98963.55
2019-03-04T08:22:41.670Z,98957.80
2019-03-04T08:25:11.939Z,98956.92
2019-03-04T08:27:43.431Z,98956.78
2019-03-04T08:30:17.606Z,98952.30
2019-03-04T08:32:47.926Z,98940.24
2019-03-04T08:35:18.271Z,98941.05
2019-03-04T08:37:48.538Z,98945.42
2019-03-04T08:40:36.432Z,98931.75
2019-03-04T08:43:06.684Z,98927.67
2019-03-04T08:45:37.032Z,98923.30
2019-03-04T08:48:07.391Z,98920.70
2019-03-04T08:50:37.966Z,98911.94
2019-03-04T08:53:08.299Z,98896.08
2019-03-04T08:55:38.747Z,98883.38
2019-03-04T08:58:09.181Z,98873.14
2019-03-04T09:00:46.576Z,98870.41
2019-03-04T09:03:16.912Z,98860.56
2019-03-04T09:05:48.743Z,98859.47
2019-03-04T09:08:19.108Z,98850.69
2019-03-04T09:11:07.164Z,98864.26
2019-03-04T09:13:40.234Z,98872.49
2019-03-04T09:16:21.147Z,98865.51
2019-03-04T09:18:53.042Z,98840.20
2019-03-04T09:21:26.574Z,98842.22
2019-03-04T09:24:00.143Z,98831.70
2019-03-04T09:26:30.495Z,98829.78
2019-03-04T09:29:00.750Z,98819.34
2019-03-04T09:31:36.925Z,98804.16
2019-03-04T09:34:07.251Z,98813.55
2019-03-04T09:36:37.657Z,98816.59
2019-03-04T09:39:11.001Z,98812.73
2019-03-04T09:42:01.916Z,98803.98
2019-03-04T09:44:32.263Z,98805.78
2019-03-04T09:47:02.517Z,98811.28
2019-03-04T09:49:36.974Z,98796.58
2019-03-04T09:52:07.531Z,98799.23
2019-03-04T09:54:38.883Z,98788.56
2019-03-04T09:57:27.236Z,98785.21
2019-03-04T10:00:42.055Z,98769.47
2019-03-04T10:03:38.593Z,98744.75
2019-03-04T10:06:27.486Z,98745.50
2019-03-04T10:09:06.980Z,98748.26
2019-03-04T10:12:06.953Z,98744.89
2019-03-04T10:15:08.504Z,98736.95
2019-03-04T10:17:55.511Z,98733.72
2019-03-04T10:20:45.379Z,98736.41
2019-03-04T10:23:27.765Z,98732.20
2019-03-04T10:26:07.437Z,98719.98
2019-03-04T10:29:06.847Z,98711.23
2019-03-04T10:31:55.611Z,98728.31
2019-03-04T10:34:47.194Z,98728.02
2019-03-04T10:37:25.921Z,98717.88
2019-03-04T10:40:15.639Z,98708.67
2019-03-04T10:42:52.389Z,98701.53
2019-03-04T10:45:31.904Z,98699.09
2019-03-04T10:48:02.203Z,98686.95
2019-03-04T10:50:34.478Z,98691.27
2019-03-04T10:53:04.830Z,98698.77
2019-03-04T10:55:41.889Z,98690.97
2019-03-04T10:58:08.526Z,98697.53
2019-03-04T11:00:41.173Z,98695.36
2019-03-04T11:03:12.774Z,98689.00
2019-03-04T11:05:43.129Z,98675.15
2019-03-04T11:08:13.811Z,98675.37
2019-03-04T11:10:48.225Z,98682.47
2019-03-04T11:13:18.560Z,98679.30
2019-03-04T11:15:51.229Z,98678.35
2019-03-04T11:18:21.762Z,98676.47
2019-03-04T11:20:53.218Z,98671.97
2019-03-04T11:23:24.523Z,98684.99
2019-03-04T11:25:55.235Z,98675.48
2019-03-04T11:28:27.387Z,98675.36
2019-03-04T11:30:57.815Z,98670.86
2019-03-04T11:33:28.337Z,98670.40
2019-03-04T11:35:58.608Z,98656.66
2019-03-04T11:38:31.922Z,98648.30
2019-03-04T11:41:03.429Z,98647.80
2019-03-04T11:43:33.768Z,98640.03
2019-03-04T11:46:04.109Z,98636.55
2019-03-04T11:48:34.534Z,98631.98
2019-03-04T11:51:06.318Z,98625.38
2019-03-04T11:53:36.599Z,98611.58
2019-03-04T11:56:06.886Z,98607.77
2019-03-04T11:58:37.170Z,98604.88
2019-03-04T12:01:12.076Z,98587.73
2019-03-04T12:03:42.431Z,98594.55
2019-03-04T12:06:12.788Z,98582.88
2019-03-04T12:08:43.083Z,98582.34
2019-03-04T12:11:13.729Z,98578.32
2019-03-04T12:13:44.313Z,98575.66
2019-03-04T12:16:14.819Z,98567.84
2019-03-04T12:18:45.154Z,98560.54
2019-03-04T12:21:15.592Z,98551.12
2019-03-04T12:23:45.861Z,98525.75
2019-03-04T12:26:18.387Z,98512.94
2019-03-04T12:28:48.148Z,98497.17
2019-03-04T12:31:18.876Z,98498.87
2019-03-04T12:33:49.460Z,98484.31
2019-03-04T12:36:22.387Z,98477.77
2019-03-04T12:39:10.674Z,98464.09
2019-03-04T12:41:41.660Z,98487.39
2019-03-04T12:52:35.788Z,98459.64
2019-03-04T12:55:08.951Z,98447.71
2019-03-04T12:57:39.239Z,98443.45
2019-03-04T13:00:27.518Z,98445.38
2019-03-04T13:02:58.330Z,98441.00
2019-03-04T13:05:28.720Z,98440.73
2019-03-04T13:07:58.977Z,98426.25
2019-03-04T13:10:31.553Z,98439.66
2019-03-04T13:13:01.203Z,98421.97
2019-03-04T13:15:36.210Z,98414.04
2019-03-04T13:18:14.129Z,98422.53
2019-03-04T13:20:44.372Z,98410.19
2019-03-04T13:23:14.633Z,98409.80
2019-03-04T13:25:44.886Z,98411.55
2019-03-04T13:28:15.140Z,98391.87
2019-03-04T13:30:45.403Z,98403.69
2019-03-04T13:33:16.045Z,98391.15
2019-03-04T13:35:46.359Z,98395.03
2019-03-04T13:38:16.679Z,98398.88
2019-03-04T13:40:48.157Z,98385.50
2019-03-04T13:43:18.695Z,98386.28
2019-03-04T13:45:49.219Z,98392.04
2019-03-04T13:48:19.474Z,98390.70
2019-03-04T13:50:49.733Z,98398.22
2019-03-04T13:53:19.987Z,98394.71
2019-03-04T13:55:50.431Z,98393.37
2019-03-04T13:58:20.752Z,98395.49
2019-03-04T14:00:51.076Z,98390.81
2019-03-04T14:03:21.326Z,98374.23
2019-03-04T14:05:51.611Z,98375.06
2019-03-04T14:08:21.939Z,98358.16
2019-03-04T14:10:53.621Z,98375.17
2019-03-04T14:13:23.884Z,98392.80
2019-03-04T14:15:57.477Z,98358.83
2019-03-04T14:18:27.957Z,98379.95
2019-03-04T14:20:58.277Z,98362.47
2019-03-04T14:23:28.556Z,98391.70
2019-03-04T14:25:58.963Z,98378.94
2019-03-04T14:28:29.491Z,98371.99
2019-03-04T14:31:01.571Z,98384.47
2019-03-04T14:33:32.082Z,98382.84
2019-03-04T14:36:02.740Z,98371.01
2019-03-04T14:38:33.258Z,98376.49
2019-03-04T14:41:03.686Z,98362.73
2019-03-04T14:43:34.200Z,98361.81
2019-03-04T14:46:05.609Z,98363.14
2019-03-04T14:48:37.095Z,98361.77
2019-03-04T14:51:08.533Z,98359.69
2019-03-04T14:53:40.920Z,98372.61
2019-03-04T14:56:11.476Z,98356.19
2019-03-04T14:58:44.534Z,98356.27
2019-03-04T15:01:14.975Z,98366.06
2019-03-04T15:03:46.505Z,98368.93
2019-03-04T15:06:16.953Z,98380.17
2019-03-04T15:08:47.469Z,98398.95
2019-03-04T15:11:18.031Z,98380.21
2019-03-04T15:13:49.491Z,98407.19
2019-03-04T15:16:19.969Z,98406.66
2019-03-04T15:18:51.420Z,98415.08
2019-03-04T15:21:22.885Z,98408.48
2019-03-04T15:23:54.643Z,98414.47
2019-03-04T15:26:26.581Z,98408.08
2019-03-04T15:28:56.915Z,98404.28
2019-03-04T15:31:28.384Z,98416.45
2019-03-04T15:33:59.818Z,98410.87
2019-03-04T15:36:31.281Z,98413.22
2019-03-04T15:39:05.285Z,98410.26
2019-03-04T15:41:40.286Z,98423.19
2019-03-04T15:44:09.012Z,98418.30
2019-03-04T15:46:41.414Z,98417.89
2019-03-04T15:49:12.907Z,98422.33
2019-03-04T15:51:43.377Z,98424.61
2019-03-04T15:54:13.886Z,98425.53
2019-03-04T15:56:45.385Z,98433.11
2019-03-04T15:59:20.488Z,98439.80
2019-03-04T16:01:51.032Z,98435.42
2019-03-04T16:04:22.491Z,98432.39
2019-03-04T16:06:58.565Z,98443.98
2019-03-04T16:09:30.183Z,98460.02
2019-03-04T16:12:00.518Z,98448.52
2019-03-04T16:14:32.191Z,98458.34
2019-03-04T16:17:02.685Z,98436.63
2019-03-04T16:19:36.912Z,98439.79
2019-03-04T16:22:10.326Z,98460.17
2019-03-04T16:24:40.833Z,98461.06
2019-03-04T16:27:12.128Z,98448.27
2019-03-04T16:29:42.547Z,98451.41
2019-03-04T16:32:13.969Z,98464.27
2019-03-04T16:34:44.508Z,98461.16
2019-03-04T16:37:15.042Z,98453.20
2019-03-04T16:39:45.559Z,98457.20
2019-03-04T16:42:15.937Z,98448.83
2019-03-04T16:44:46.336Z,98443.06
2019-03-04T16:47:17.769Z,98447.95
2019-03-04T16:49:49.305Z,98442.20
2019-03-04T16:52:23.849Z,98439.98
2019-03-04T16:54:57.456Z,98451.95
2019-03-04T16:57:28.933Z,98451.95
2019-03-04T17:00:02.733Z,98444.43
2019-03-04T17:02:36.018Z,98444.02
2019-03-04T17:05:10.651Z,98434.25
2019-03-04T17:07:41.574Z,98436.47
2019-03-04T17:10:20.834Z,98417.92
2019-03-04T17:12:57.450Z,98431.58
2019-03-04T17:15:28.936Z,98432.89
2019-03-04T17:18:02.224Z,98428.48
2019-03-04T17:20:34.279Z,98429.34
2019-03-04T17:23:06.038Z,98433.80
2019-03-04T17:25:36.560Z,98427.59
2019-03-04T17:28:08.012Z,98425.00
2019-03-04T17:30:39.452Z,98425.42
2019-03-04T17:33:09.994Z,98412.16
2019-03-04T17:35:41.441Z,98425.86
2019-03-04T17:38:11.970Z,98435.56
2019-03-04T17:40:45.483Z,98437.36
2019-03-04T17:43:15.979Z,98417.90
2019-03-04T17:45:46.517Z,98435.13
2019-03-04T17:48:17.518Z,98432.51
2019-03-04T17:50:48.162Z,98436.02
2019-03-04T17:53:18.547Z,98426.30
2019-03-04T17:55:50.881Z,98429.42
2019-03-04T17:58:21.431Z,98428.09
2019-03-04T18:00:53.569Z,98426.77
2019-03-04T18:03:28.608Z,98436.02
2019-03-04T18:06:00.711Z,98432.93
2019-03-04T18:08:32.982Z,98426.31
2019-03-04T18:11:05.377Z,98426.30
2019-03-04T18:13:38.551Z,98415.27
2019-03-04T18:16:11.719Z,98425.41
2019-03-04T18:18:47.710Z,98432.05
2019-03-04T18:21:19.637Z,98432.92
2019-03-04T18:23:51.337Z,98442.66
2019-03-04T18:26:25.394Z,98448.84
2019-03-04T18:29:08.309Z,98457.27
2019-03-04T18:32:06.519Z,98434.23
2019-03-04T18:34:58.768Z,98436.01
2019-03-04T18:37:58.492Z,98441.73
2019-03-04T18:41:14.761Z,98424.03
2019-03-04T18:44:23.228Z,98431.11
2019-03-04T18:47:22.319Z,98433.77
2019-03-04T18:49:55.364Z,98433.75
2019-03-04T18:52:25.847Z,98426.69
2019-03-04T18:54:56.122Z,98437.30
2019-03-04T18:57:26.488Z,98439.52
2019-03-04T18:59:56.845Z,98454.09
2019-03-04T19:02:27.405Z,98490.35
2019-03-04T19:04:58.150Z,98526.16
2019-03-04T19:07:29.936Z,98509.75
2019-03-04T19:10:02.786Z,98517.59
2019-03-04T19:12:33.715Z,98517.91
2019-03-04T19:15:06.304Z,98535.46
2019-03-04T19:17:36.818Z,98542.41
2019-03-04T19:20:12.881Z,98544.51
2019-03-04T19:22:44.968Z,98540.42
2019-03-04T19:25:15.386Z,98541.15
2019-03-04T19:27:46.116Z,98558.21
2019-03-04T19:30:19.806Z,98562.08
2019-03-04T19:32:52.206Z,98570.74
2019-03-04T19:35:25.996Z,98574.63
2019-03-04T19:38:00.136Z,98588.25
2019-03-04T19:40:30.894Z,98597.06
2019-03-04T19:43:01.690Z,98597.91
2019-03-04T19:45:32.351Z,98619.89
2019-03-04T19:48:04.017Z,98613.55
2019-03-04T19:50:37.303Z,98617.95
2019-03-04T19:53:07.794Z,98631.11
2019-03-04T19:55:40.130Z,98637.53
2019-03-04T19:58:10.705Z,98632.39
2019-03-04T20:00:41.173Z,98632.45
2019-03-04T20:03:12.037Z,98627.72
2019-03-04T20:05:43.952Z,98642.53
2019-03-04T20:08:16.321Z,98652.03
2019-03-04T20:10:48.296Z,98657.53
2019-03-04T20:13:18.742Z,98657.73
2019-03-04T20:15:53.421Z,98663.66
2019-03-04T20:18:26.658Z,98681.98
2019-03-04T20:21:00.753Z,98670.34
2019-03-04T20:23:33.609Z,98678.12
2019-03-04T20:26:04.376Z,98695.02
2019-03-04T20:28:35.145Z,98686.97
2019-03-04T20:31:05.746Z,98681.19
2019-03-04T20:33:36.189Z,98695.53
2019-03-04T20:36:10.253Z,98694.56
2019-03-04T20:38:49.053Z,98704.88
2019-03-04T20:41:23.872Z,98696.45
2019-03-04T20:43:59.822Z,98692.73
2019-03-04T20:46:31.089Z,98710.27
2019-03-04T20:49:04.292Z,98713.53
2019-03-04T20:51:34.963Z,98713.38
2019-03-04T20:54:09.750Z,98722.52
2019-03-04T20:56:43.995Z,98724.55
2019-03-04T20:59:16.038Z,98728.48
2019-03-04T21:01:48.532Z,98733.22
2019-03-04T21:04:18.984Z,98734.38
2019-03-04T21:06:51.306Z,98725.49
2019-03-04T21:09:21.839Z,98746.47
2019-03-04T21:11:53.422Z,98748.10
2019-03-04T21:14:24.241Z,98740.55
2019-03-04T21:16:57.513Z,98749.17
2019-03-04T21:19:27.928Z,98742.59
2019-03-04T21:21:59.920Z,98753.44
2019-03-04T21:24:31.799Z,98760.70
2019-03-04T21:27:02.160Z,98764.25
2019-03-04T21:29:48.016Z,98766.05
2019-03-04T21:32:24.211Z,98773.45
2019-03-04T21:35:08.537Z,98780.44
2019-03-04T21:37:41.212Z,98786.23
2019-03-04T21:40:20.405Z,98791.09
2019-03-04T21:43:01.370Z,98790.04
2019-03-04T21:45:56.141Z,98793.19
2019-03-04T21:48:34.146Z,98794.16
2019-03-04T21:51:47.207Z,98796.53
2019-03-04T21:54:18.387Z,98814.89
2019-03-04T21:57:07.259Z,98811.29
2019-03-04T21:59:38.075Z,98820.56
2019-03-04T22:02:28.789Z,98820.93
2019-03-04T22:05:02.758Z,98829.68
2019-03-04T22:07:37.485Z,98825.25
2019-03-04T22:10:11.247Z,98836.17
2019-03-04T22:12:46.665Z,98834.22
2019-03-04T22:15:17.563Z,98839.42
2019-03-04T22:17:48.487Z,98843.77
2019-03-04T22:20:19.043Z,98846.75
2019-03-04T22:22:49.556Z,98845.12
2019-03-04T22:25:21.057Z,98855.64
2019-03-04T22:27:54.334Z,98859.98
2019-03-04T22:30:26.191Z,98850.02
2019-03-04T22:33:05.871Z,98866.69
2019-03-04T22:35:37.582Z,98871.58
2019-03-04T22:38:10.289Z,98876.44
2019-03-04T22:40:42.373Z,98879.16
2019-03-04T22:43:16.023Z,98875.64
2019-03-04T22:45:49.388Z,98882.22
2019-03-04T22:48:19.688Z,98880.57
2019-03-04T22:50:51.671Z,98888.98
2019-03-04T22:53:25.485Z,98872.27
2019-03-04T22:56:00.113Z,98877.59
2019-03-04T22:58:30.601Z,98881.14
2019-03-04T23:01:10.771Z,98889.90
2019-03-04T23:04:06.969Z,98887.72
2019-03-04T23:06:53.719Z,98892.16
2019-03-04T23:09:27.318Z,98892.62
2019-03-04T23:12:03.705Z,98886.41
2019-03-04T23:14:35.165Z,98897.00
2019-03-04T23:17:06.687Z,98892.59
2019-03-04T23:19:39.996Z,98894.39
2019-03-04T23:22:12.596Z,98893.14
2019-03-04T23:24:47.034Z,98888.33
2019-03-04T23:27:19.858Z,98882.63
2019-03-04T23:29:57.765Z,98888.22
2019-03-04T23:32:41.593Z,98872.79
2019-03-04T23:35:12.485Z,98889.88
2019-03-04T23:37:42.763Z,98889.96
2019-03-04T23:40:13.001Z,98893.41
2019-03-04T23:42:43.313Z,98892.98
2019-03-04T23:45:13.560Z,98898.83
2019-03-04T23:47:43.805Z,98900.20
2019-03-04T23:50:19.921Z,98900.20
2019-03-04T23:52:50.243Z,98900.60
2019-03-04T23:55:21.599Z,98901.52
2019-03-04T23:57:51.915Z,98896.77
